createdAt,value
2023-02-01T00:01:38.881Z,99622.19
2023-02-01T00:04:08.435Z,99644.03
2023-02-01T00:06:36.630Z,99626.09
2023-02-01T00:09:05.064Z,99644.91
2023-02-01T00:11:33.235Z,99622.41
2023-02-01T00:14:01.400Z,99610.06
2023-02-01T00:16:31.850Z,99606.25
2023-02-01T00:19:02.569Z,99609.81
2023-02-01T00:21:34.098Z,99610.66
2023-02-01T00:24:02.355Z,99609.59
2023-02-01T00:26:35.502Z,99611.25
2023-02-01T00:29:06.136Z,99627.09
2023-02-01T00:31:34.467Z,99618.06
2023-02-01T00:34:02.660Z,99606.53
2023-02-01T00:36:32.563Z,99621.28
2023-02-01T00:39:01.013Z,99619.50
2023-02-01T00:41:29.521Z,99607.13
2023-02-01T00:43:57.910Z,99624.63
2023-02-01T00:46:26.842Z,99623.78
2023-02-01T00:48:55.756Z,99624.41
2023-02-01T00:51:26.327Z,99624.16
2023-02-01T00:53:56.670Z,99620.59
2023-02-01T00:56:25.286Z,99631.78
2023-02-01T00:58:53.720Z,99625.34
2023-02-01T01:01:23.782Z,99624.63
2023-02-01T01:03:55.119Z,99613.47
2023-02-01T01:06:25.562Z,99626.66
2023-02-01T01:08:55.909Z,99615.13
2023-02-01T01:11:26.073Z,99619.50
2023-02-01T01:13:56.205Z,99637.72
2023-02-01T01:16:26.145Z,99634.63
2023-02-01T01:18:55.004Z,99625.81
2023-02-01T01:21:23.485Z,99627.00
2023-02-01T01:23:52.083Z,99625.09
2023-02-01T01:26:25.015Z,99622.72
2023-02-01T01:28:53.971Z,99632.47
2023-02-01T01:31:23.154Z,99617.47
2023-02-01T01:33:52.803Z,99622.09
2023-02-01T01:36:21.715Z,99620.44
2023-02-01T01:38:50.398Z,99637.00
2023-02-01T01:41:21.565Z,99635.81
2023-02-01T01:43:57.393Z,99648.66
2023-02-01T01:46:27.606Z,99586.09
2023-02-01T01:49:03.612Z,99606.53
2023-02-01T01:51:34.416Z,99621.03
2023-02-01T01:54:08.548Z,99640.66
2023-02-01T01:56:38.055Z,99635.94
2023-02-01T01:59:09.016Z,99639.63
2023-02-01T02:01:37.629Z,99626.06
2023-02-01T02:04:07.210Z,99649.25
2023-02-01T02:06:49.112Z,99641.38
2023-02-01T02:09:18.611Z,99649.38
2023-02-01T02:11:46.987Z,99646.28
2023-02-01T02:14:19.769Z,99653.41
2023-02-01T02:17:01.464Z,99651.50
2023-02-01T02:20:02.140Z,99647.09
2023-02-01T02:22:48.777Z,99651.03
2023-02-01T02:25:43.540Z,99653.28
2023-02-01T02:28:32.052Z,99645.56
2023-02-01T02:31:26.605Z,99642.81
2023-02-01T02:34:06.182Z,99637.47
2023-02-01T02:36:44.132Z,99635.34
2023-02-01T02:39:23.322Z,99630.81
2023-02-01T02:42:18.334Z,99625.44
2023-02-01T02:45:08.873Z,99630.59
2023-02-01T02:47:46.622Z,99639.72
2023-02-01T02:50:43.399Z,99635.34
2023-02-01T02:53:33.225Z,99649.00
2023-02-01T02:56:20.929Z,99643.44
2023-02-01T02:59:08.141Z,99636.53
2023-02-01T03:01:53.966Z,99640.56
2023-02-01T03:04:24.912Z,99640.34
2023-02-01T03:06:55.422Z,99647.34
2023-02-01T03:09:28.611Z,99650.31
2023-02-01T03:12:21.865Z,99638.53
2023-02-01T03:14:55.059Z,99644.47
2023-02-01T03:17:29.172Z,99646.75
2023-02-01T03:20:02.932Z,99656.25
2023-02-01T03:22:35.553Z,99660.44
2023-02-01T03:25:08.062Z,99654.13
2023-02-01T03:27:40.126Z,99655.78
2023-02-01T03:30:12.040Z,99654.81
2023-02-01T03:35:47.184Z,99661.25
2023-02-01T03:38:22.355Z,99652.69
2023-02-01T03:40:55.860Z,99674.25
2023-02-01T03:43:27.696Z,99664.84
2023-02-01T03:46:04.376Z,99680.31
2023-02-01T03:48:33.037Z,99664.34
2023-02-01T03:51:07.404Z,99663.63
2023-02-01T03:53:38.710Z,99647.44
2023-02-01T03:56:08.780Z,99648.31
2023-02-01T03:58:38.113Z,99644.38
2023-02-01T04:01:06.547Z,99645.19
2023-02-01T04:03:35.234Z,99652.31
2023-02-01T04:06:05.201Z,99632.47
2023-02-01T04:08:33.579Z,99627.22
2023-02-01T04:11:05.022Z,99626.75
2023-02-01T04:13:33.426Z,99618.41
2023-02-01T04:16:01.949Z,99615.81
2023-02-01T04:18:30.467Z,99619.13
2023-02-01T04:20:58.923Z,99621.03
2023-02-01T04:23:28.908Z,99611.75
2023-02-01T04:26:02.196Z,99607.94
2023-02-01T04:28:31.174Z,99618.28
2023-02-01T04:31:00.349Z,99614.13
2023-02-01T04:33:28.930Z,99601.59
2023-02-01T04:35:57.371Z,99613.88
2023-02-01T04:38:25.873Z,99630.56
2023-02-01T04:40:55.724Z,99609.38
2023-02-01T04:43:24.200Z,99610.06
2023-02-01T04:45:53.370Z,99614.00
2023-02-01T04:48:25.098Z,99614.94
2023-02-01T04:50:53.716Z,99619.84
2023-02-01T04:53:22.193Z,99612.69
2023-02-01T04:55:51.417Z,99622.94
2023-02-01T04:58:21.425Z,99612.19
2023-02-01T05:00:50.825Z,99625.75
2023-02-01T05:03:19.265Z,99620.53
2023-02-01T05:05:49.594Z,99620.28
2023-02-01T05:08:18.274Z,99621.13
2023-02-01T05:10:47.868Z,99623.38
2023-02-01T05:13:33.464Z,99626.94
2023-02-01T05:16:03.516Z,99615.25
2023-02-01T05:18:32.243Z,99620.84
2023-02-01T05:21:00.822Z,99603.94
2023-02-01T05:23:29.309Z,99608.06
2023-02-01T05:26:02.164Z,99611.41
2023-02-01T05:28:30.836Z,99601.41
2023-02-01T05:30:59.329Z,99600.91
2023-02-01T05:33:29.430Z,99602.09
2023-02-01T05:35:57.891Z,99606.63
2023-02-01T05:38:26.379Z,99615.19
2023-02-01T05:40:54.859Z,99610.09
2023-02-01T05:43:23.275Z,99613.97
2023-02-01T05:45:51.915Z,99604.19
2023-02-01T05:48:20.612Z,99590.97
2023-02-01T05:50:50.537Z,99578.50
2023-02-01T05:53:19.167Z,99588.00
2023-02-01T05:55:47.883Z,99589.69
2023-02-01T05:58:16.815Z,99590.28
2023-02-01T06:00:45.409Z,99587.75
2023-02-01T06:03:13.822Z,99581.25
2023-02-01T06:05:42.377Z,99582.78
2023-02-01T06:08:12.235Z,99573.94
2023-02-01T06:10:40.721Z,99581.56
2023-02-01T06:13:09.747Z,99569.31
2023-02-01T06:15:39.041Z,99582.03
2023-02-01T06:18:07.703Z,99568.81
2023-02-01T06:20:36.253Z,99571.28
2023-02-01T06:23:06.325Z,99568.66
2023-02-01T06:25:36.204Z,99582.91
2023-02-01T06:28:07.161Z,99564.72
2023-02-01T06:30:35.867Z,99576.97
2023-02-01T06:33:04.411Z,99572.06
2023-02-01T06:35:32.815Z,99570.53
2023-02-01T06:38:01.300Z,99574.94
2023-02-01T06:40:29.730Z,99570.25
2023-02-01T06:42:59.809Z,99567.63
2023-02-01T06:45:28.276Z,99572.53
2023-02-01T06:47:56.707Z,99580.94
2023-02-01T06:50:25.332Z,99575.69
2023-02-01T06:52:53.942Z,99573.06
2023-02-01T06:55:25.296Z,99578.31
2023-02-01T06:57:56.676Z,99584.41
2023-02-01T07:00:26.918Z,99581.66
2023-02-01T07:02:55.372Z,99583.31
2023-02-01T07:05:24.160Z,99581.41
2023-02-01T07:07:52.588Z,99580.22
2023-02-01T07:10:21.553Z,99575.06
2023-02-01T07:12:50.221Z,99585.31
2023-02-01T07:15:18.712Z,99565.09
2023-02-01T07:17:50.294Z,99586.16
2023-02-01T07:20:19.182Z,99574.00
2023-02-01T07:22:47.746Z,99580.91
2023-02-01T07:25:16.280Z,99578.75
2023-02-01T07:27:44.751Z,99578.41
2023-02-01T07:30:15.158Z,99584.53
2023-02-01T07:32:43.679Z,99590.63
2023-02-01T07:35:15.297Z,99579.19
2023-02-01T07:37:43.885Z,99577.53
2023-02-01T07:40:14.002Z,99582.63
2023-02-01T07:42:42.447Z,99591.44
2023-02-01T07:45:21.028Z,99584.28
2023-02-01T07:47:50.192Z,99579.56
2023-02-01T07:50:20.349Z,99577.19
2023-02-01T07:52:48.878Z,99590.63
2023-02-01T07:55:17.454Z,99575.59
2023-02-01T07:57:45.907Z,99569.25
2023-02-01T08:00:33.342Z,99572.03
2023-02-01T08:03:02.323Z,99567.47
2023-02-01T08:05:32.344Z,99577.00
2023-02-01T08:08:01.342Z,99575.19
2023-02-01T08:10:29.742Z,99566.63
2023-02-01T08:13:01.084Z,99572.03
2023-02-01T08:15:29.673Z,99560.66
2023-02-01T08:17:59.892Z,99570.22
2023-02-01T08:20:28.683Z,99559.16
2023-02-01T08:22:59.373Z,99556.09
2023-02-01T08:25:28.843Z,99557.22
2023-02-01T08:27:57.527Z,99571.88
2023-02-01T08:30:26.253Z,99556.84
2023-02-01T08:32:54.729Z,99547.00
2023-02-01T08:35:27.882Z,99557.69
2023-02-01T08:38:03.488Z,99545.13
2023-02-01T08:40:31.955Z,99552.16
2023-02-01T08:43:01.867Z,99549.84
2023-02-01T08:45:31.734Z,99544.47
2023-02-01T08:48:00.430Z,99548.88
2023-02-01T08:50:29.084Z,99536.47
2023-02-01T08:52:57.630Z,99548.88
2023-02-01T08:55:29.981Z,99549.56
2023-02-01T08:57:58.816Z,99552.91
2023-02-01T09:00:27.357Z,99547.41
2023-02-01T09:02:56.287Z,99555.97
2023-02-01T09:05:35.050Z,99556.81
2023-02-01T09:08:09.793Z,99552.66
2023-02-01T09:10:40.131Z,99558.84
2023-02-01T09:13:09.031Z,99561.75
2023-02-01T09:15:37.675Z,99564.78
2023-02-01T09:18:06.821Z,99564.44
2023-02-01T09:20:35.387Z,99553.66
2023-02-01T09:23:03.894Z,99566.06
2023-02-01T09:25:32.445Z,99542.28
2023-02-01T09:28:02.285Z,99541.16
2023-02-01T09:30:31.472Z,99552.53
2023-02-01T09:33:00.093Z,99543.72
2023-02-01T09:35:28.622Z,99545.38
2023-02-01T09:37:57.408Z,99551.91
2023-02-01T09:40:26.403Z,99555.09
2023-02-01T09:43:23.654Z,99553.06
2023-02-01T09:46:02.181Z,99553.59
2023-02-01T09:48:36.524Z,99553.50
2023-02-01T09:51:09.366Z,99554.31
2023-02-01T09:53:43.450Z,99553.22
2023-02-01T09:56:17.054Z,99556.81
2023-02-01T09:58:52.168Z,99553.22
2023-02-01T10:01:23.472Z,99542.16
2023-02-01T10:03:55.015Z,99547.72
2023-02-01T10:06:33.202Z,99535.56
2023-02-01T10:09:24.241Z,99537.75
2023-02-01T10:12:19.725Z,99548.25
2023-02-01T10:15:00.662Z,99533.09
2023-02-01T10:17:47.698Z,99524.25
2023-02-01T10:20:24.714Z,99531.72
2023-02-01T10:23:26.935Z,99521.38
2023-02-01T10:25:56.992Z,99522.88
2023-02-01T10:28:27.543Z,99517.09
2023-02-01T10:31:01.391Z,99508.78
2023-02-01T10:33:36.231Z,99505.09
2023-02-01T10:36:15.092Z,99514.34
2023-02-01T10:38:44.195Z,99508.84
2023-02-01T10:41:17.604Z,99496.44
2023-02-01T10:43:48.820Z,99491.03
2023-02-01T10:46:19.015Z,99493.53
2023-02-01T10:48:48.461Z,99487.31
2023-02-01T10:51:23.468Z,99482.63
2023-02-01T10:53:55.730Z,99481.38
2023-02-01T10:56:27.225Z,99478.75
2023-02-01T10:59:03.501Z,99490.09
2023-02-01T11:01:36.958Z,99472.00
2023-02-01T11:04:06.975Z,99484.44
2023-02-01T11:06:38.138Z,99475.44
2023-02-01T11:09:14.854Z,99473.78
2023-02-01T11:11:57.243Z,99462.44
2023-02-01T11:14:34.910Z,99475.84
2023-02-01T11:17:20.945Z,99461.00
2023-02-01T11:19:50.070Z,99458.53
2023-02-01T11:22:19.129Z,99456.88
2023-02-01T11:24:48.961Z,99444.44
2023-02-01T11:27:27.131Z,99452.44
2023-02-01T11:30:01.224Z,99442.88
2023-02-01T11:32:32.303Z,99428.09
2023-02-01T11:35:04.887Z,99436.09
2023-02-01T11:37:39.101Z,99421.03
2023-02-01T11:40:28.249Z,99446.59
2023-02-01T11:42:59.368Z,99436.91
2023-02-01T11:45:30.360Z,99427.25
2023-02-01T11:48:01.786Z,99404.00
2023-02-01T11:50:41.980Z,99422.81
2023-02-01T11:53:40.829Z,99415.25
2023-02-01T11:56:20.484Z,99413.16
2023-02-01T11:59:18.756Z,99405.13
2023-02-01T12:02:05.601Z,99409.25
2023-02-01T12:05:07.024Z,99411.88
2023-02-01T12:07:55.324Z,99400.09
2023-02-01T12:10:36.548Z,99406.72
2023-02-01T12:13:24.445Z,99400.09
2023-02-01T12:16:02.790Z,99392.50
2023-02-01T12:18:53.389Z,99400.63
2023-02-01T12:21:59.535Z,99397.03
2023-02-01T12:24:57.358Z,99402.84
2023-02-01T12:27:55.652Z,99391.81
2023-02-01T12:30:58.833Z,99391.00
2023-02-01T12:33:38.315Z,99398.72
2023-02-01T12:36:16.661Z,99415.03
2023-02-01T12:38:56.138Z,99400.00
2023-02-01T12:41:55.417Z,99393.50
2023-02-01T12:44:35.298Z,99402.19
2023-02-01T12:47:09.098Z,99392.53
2023-02-01T12:49:48.583Z,99401.78
2023-02-01T12:52:22.700Z,99401.75
2023-02-01T12:55:00.384Z,99412.25
2023-02-01T12:57:35.147Z,99411.56
2023-02-01T13:00:16.528Z,99409.63
2023-02-01T13:02:52.378Z,99413.91
2023-02-01T13:05:26.063Z,99420.56
2023-02-01T13:08:01.391Z,99426.59
2023-02-01T13:10:37.148Z,99427.47
2023-02-01T13:13:13.994Z,99433.41
2023-02-01T13:15:46.396Z,99419.06
2023-02-01T13:18:20.902Z,99422.91
2023-02-01T13:20:56.033Z,99428.75
2023-02-01T13:23:30.962Z,99453.44
2023-02-01T13:26:01.189Z,99448.47
2023-02-01T13:28:35.152Z,99429.13
2023-02-01T13:31:32.219Z,99439.09
2023-02-01T13:34:39.212Z,99446.25
2023-02-01T13:37:31.378Z,99449.69
2023-02-01T13:40:26.455Z,99425.97
2023-02-01T13:42:59.345Z,99432.19
2023-02-01T13:45:31.332Z,99423.94
2023-02-01T13:48:05.835Z,99434.16
2023-02-01T13:50:38.764Z,99428.06
2023-02-01T13:53:20.041Z,99428.31
2023-02-01T13:55:54.113Z,99426.81
2023-02-01T13:58:31.202Z,99431.53
2023-02-01T14:01:35.361Z,99451.56
2023-02-01T14:04:06.865Z,99419.63
2023-02-01T14:06:47.209Z,99449.22
2023-02-01T14:09:32.859Z,99429.19
2023-02-01T14:12:51.227Z,99434.03
2023-02-01T14:15:25.995Z,99437.22
2023-02-01T14:17:55.176Z,99442.88
2023-02-01T14:20:50.254Z,99435.97
2023-02-01T14:23:34.863Z,99444.13
2023-02-01T14:26:11.056Z,99454.19
2023-02-01T14:28:45.342Z,99455.69
2023-02-01T14:31:31.213Z,99442.41
2023-02-01T14:34:03.454Z,99436.28
2023-02-01T14:36:45.790Z,99434.91
2023-02-01T14:39:31.662Z,99447.31
2023-02-01T14:42:03.468Z,99440.13
2023-02-01T14:44:38.245Z,99440.00
2023-02-01T14:47:38.736Z,99455.94
2023-02-01T14:50:29.779Z,99441.03
2023-02-01T14:53:13.945Z,99449.75
2023-02-01T14:55:44.496Z,99461.72
2023-02-01T14:58:26.796Z,99458.69
2023-02-01T15:00:59.602Z,99451.75
2023-02-01T15:03:45.974Z,99464.63
2023-02-01T15:06:34.473Z,99459.50
2023-02-01T15:09:06.404Z,99455.38
2023-02-01T15:11:34.846Z,99463.94
2023-02-01T15:14:03.257Z,99449.31
2023-02-01T15:16:31.738Z,99456.47
2023-02-01T15:19:15.958Z,99459.81
2023-02-01T15:21:49.124Z,99453.44
2023-02-01T15:24:22.947Z,99456.47
2023-02-01T15:26:52.008Z,99460.88
2023-02-01T15:29:21.993Z,99468.75
2023-02-01T15:31:52.861Z,99461.03
2023-02-01T15:34:24.129Z,99465.31
2023-02-01T15:37:03.450Z,99459.50
2023-02-01T15:39:33.442Z,99461.56
2023-02-01T15:42:11.659Z,99467.50
2023-02-01T15:44:43.942Z,99465.69
2023-02-01T15:47:18.865Z,99462.78
2023-02-01T15:49:53.270Z,99475.13
2023-02-01T15:52:29.152Z,99484.22
2023-02-01T15:55:02.128Z,99473.47
2023-02-01T15:57:32.970Z,99478.69
2023-02-01T16:00:04.544Z,99470.50
2023-02-01T16:02:38.856Z,99473.84
2023-02-01T16:05:31.375Z,99479.66
2023-02-01T16:08:05.596Z,99481.59
2023-02-01T16:10:40.516Z,99480.75
2023-02-01T16:13:09.524Z,99489.31
2023-02-01T16:15:38.589Z,99476.47
2023-02-01T16:18:09.354Z,99476.59
2023-02-01T16:20:41.324Z,99474.25
2023-02-01T16:23:10.848Z,99483.19
2023-02-01T16:25:39.754Z,99482.38
2023-02-01T16:28:08.853Z,99483.97
2023-02-01T16:30:38.069Z,99488.91
2023-02-01T16:33:08.225Z,99483.22
2023-02-01T16:35:40.339Z,99489.69
2023-02-01T16:38:14.462Z,99482.06
2023-02-01T16:40:43.451Z,99484.00
2023-02-01T16:43:15.965Z,99479.72
2023-02-01T16:45:45.038Z,99487.13
2023-02-01T16:48:21.794Z,99475.25
2023-02-01T16:50:55.212Z,99470.00
2023-02-01T16:53:25.419Z,99469.28
2023-02-01T16:55:54.031Z,99473.00
2023-02-01T16:58:23.423Z,99468.84
2023-02-01T17:00:53.512Z,99458.38
2023-02-01T17:03:22.942Z,99459.84
2023-02-01T17:05:55.780Z,99446.03
2023-02-01T17:08:34.482Z,99449.25
2023-02-01T17:11:04.079Z,99440.78
2023-02-01T17:13:32.853Z,99439.81
2023-02-01T17:16:03.601Z,99439.31
2023-02-01T17:18:35.255Z,99439.13
2023-02-01T17:21:07.981Z,99426.72
2023-02-01T17:23:36.747Z,99438.16
2023-02-01T17:26:05.427Z,99423.03
2023-02-01T17:28:34.020Z,99410.44
2023-02-01T17:31:04.950Z,99415.88
2023-02-01T17:33:36.687Z,99404.34
2023-02-01T17:36:08.794Z,99411.97
2023-02-01T17:38:37.277Z,99404.78
2023-02-01T17:41:06.220Z,99411.00
2023-02-01T17:43:35.981Z,99395.09
2023-02-01T17:46:07.870Z,99393.16
2023-02-01T17:48:36.338Z,99391.50
2023-02-01T17:51:08.204Z,99393.16
2023-02-01T17:53:36.806Z,99393.16
2023-02-01T17:56:05.389Z,99392.22
2023-02-01T17:58:34.666Z,99384.34
2023-02-01T18:01:03.211Z,99389.31
2023-02-01T18:03:35.891Z,99389.06
2023-02-01T18:06:08.638Z,99375.41
2023-02-01T18:08:37.148Z,99386.88
2023-02-01T18:11:11.703Z,99386.78
2023-02-01T18:13:40.276Z,99393.53
2023-02-01T18:16:17.783Z,99387.91
2023-02-01T18:18:47.116Z,99366.78
2023-02-01T18:21:18.838Z,99372.78
2023-02-01T18:23:47.668Z,99373.50
2023-02-01T18:26:17.724Z,99364.41
2023-02-01T18:28:46.768Z,99345.34
2023-02-01T18:31:31.945Z,99342.50
2023-02-01T18:34:01.675Z,99331.41
2023-02-01T18:36:31.789Z,99331.72
2023-02-01T18:39:00.193Z,99338.75
2023-02-01T18:41:30.329Z,99331.59
2023-02-01T18:43:59.130Z,99338.78
2023-02-01T18:46:29.299Z,99326.50
2023-02-01T18:48:58.039Z,99316.69
2023-02-01T18:51:26.473Z,99315.31
2023-02-01T18:53:56.489Z,99303.38
2023-02-01T18:56:25.131Z,99292.13
2023-02-01T18:58:53.905Z,99287.84
2023-02-01T19:01:23.588Z,99282.16
2023-02-01T19:03:54.144Z,99276.19
2023-02-01T19:06:36.365Z,99273.34
2023-02-01T19:09:06.296Z,99267.25
2023-02-01T19:11:34.865Z,99240.72
2023-02-01T19:14:03.601Z,99256.44
2023-02-01T19:16:32.047Z,99239.59
2023-02-01T19:19:00.506Z,99233.81
2023-02-01T19:21:29.979Z,99263.63
2023-02-01T19:23:58.876Z,99254.78
2023-02-01T19:26:28.905Z,99251.22
2023-02-01T19:29:00.132Z,99244.31
2023-02-01T19:31:28.788Z,99236.72
2023-02-01T19:34:00.265Z,99245.69
2023-02-01T19:36:29.257Z,99239.75
2023-02-01T19:38:58.094Z,99226.38
2023-02-01T19:41:26.701Z,99234.00
2023-02-01T19:43:59.472Z,99214.50
2023-02-01T19:46:28.511Z,99226.53
2023-02-01T19:48:57.681Z,99234.00
2023-02-01T19:51:26.537Z,99213.44
2023-02-01T19:53:55.831Z,99214.25
2023-02-01T19:56:24.371Z,99220.06
2023-02-01T19:58:55.575Z,99216.19
2023-02-01T20:01:25.684Z,99214.66
2023-02-01T20:03:56.514Z,99213.00
2023-02-01T20:06:25.692Z,99193.56
2023-02-01T20:09:03.978Z,99222.00
2023-02-01T20:11:32.967Z,99232.84
2023-02-01T20:14:02.346Z,99212.81
2023-02-01T20:16:32.536Z,99213.34
2023-02-01T20:19:01.132Z,99233.91
2023-02-01T20:21:29.548Z,99240.53
2023-02-01T20:23:57.990Z,99237.31
2023-02-01T20:26:27.561Z,99218.53
2023-02-01T20:28:56.283Z,99239.44
2023-02-01T20:31:29.393Z,99238.84
2023-02-01T20:34:00.594Z,99265.13
2023-02-01T20:36:30.832Z,99268.34
2023-02-01T20:38:59.802Z,99258.19
2023-02-01T20:41:29.023Z,99265.25
2023-02-01T20:43:57.613Z,99264.75
2023-02-01T20:46:27.122Z,99269.78
2023-02-01T20:48:55.626Z,99244.41
2023-02-01T20:51:25.468Z,99267.00
2023-02-01T20:53:55.105Z,99273.88
2023-02-01T20:56:24.082Z,99267.38
2023-02-01T20:58:52.841Z,99267.13
2023-02-01T21:01:21.258Z,99260.63
2023-02-01T21:03:49.954Z,99283.22
2023-02-01T21:06:18.385Z,99295.56
2023-02-01T21:08:48.479Z,99295.56
2023-02-01T21:11:17.317Z,99300.09
2023-02-01T21:13:50.875Z,99320.53
2023-02-01T21:16:23.234Z,99296.56
2023-02-01T21:18:52.305Z,99307.16
2023-02-01T21:21:21.550Z,99297.03
2023-02-01T21:23:53.068Z,99321.03
2023-02-01T21:26:23.575Z,99319.13
2023-02-01T21:28:53.872Z,99320.78
2023-02-01T21:31:25.947Z,99326.03
2023-02-01T21:33:54.741Z,99329.59
2023-02-01T21:36:25.418Z,99338.84
2023-02-01T21:39:03.731Z,99337.91
2023-02-01T21:41:52.078Z,99345.03
2023-02-01T21:44:20.747Z,99342.16
2023-02-01T21:46:49.139Z,99348.50
2023-02-01T21:49:17.687Z,99351.22
2023-02-01T21:51:46.187Z,99351.66
2023-02-01T21:54:17.585Z,99355.94
2023-02-01T21:56:46.467Z,99357.75
2023-02-01T21:59:14.965Z,99362.03
2023-02-01T22:01:44.465Z,99361.19
2023-02-01T22:04:15.215Z,99348.03
2023-02-01T22:06:47.059Z,99358.69
2023-02-01T22:09:21.398Z,99367.13
2023-02-01T22:11:50.342Z,99373.19
2023-02-01T22:14:19.475Z,99367.59
2023-02-01T22:16:48.565Z,99367.59
2023-02-01T22:19:17.222Z,99382.31
2023-02-01T22:21:47.536Z,99380.41
2023-02-01T22:24:18.585Z,99377.69
2023-02-01T22:26:49.472Z,99372.72
2023-02-01T22:29:19.495Z,99374.00
2023-02-01T22:31:48.763Z,99383.50
2023-02-01T22:34:17.722Z,99381.50
2023-02-01T22:36:49.626Z,99382.06
2023-02-01T22:39:18.455Z,99394.19
2023-02-01T22:41:48.322Z,99390.38
2023-02-01T22:44:16.719Z,99385.13
2023-02-01T22:46:45.153Z,99383.13
2023-02-01T22:49:13.817Z,99396.66
2023-02-01T22:51:42.422Z,99393.94
2023-02-01T22:54:18.029Z,99386.41
2023-02-01T22:56:47.813Z,99389.63
2023-02-01T22:59:16.532Z,99389.63
2023-02-01T23:01:45.937Z,99386.53
2023-02-01T23:04:16.043Z,99405.53
2023-02-01T23:06:44.670Z,99394.13
2023-02-01T23:09:17.255Z,99396.34
2023-02-01T23:11:46.058Z,99385.31
2023-02-01T23:14:16.796Z,99390.06
2023-02-01T23:16:46.568Z,99407.03
2023-02-01T23:19:15.585Z,99397.53
2023-02-01T23:21:44.252Z,99398.38
2023-02-01T23:24:12.708Z,99386.22
2023-02-01T23:26:42.736Z,99396.91
2023-02-01T23:29:17.472Z,99394.16
2023-02-01T23:31:47.450Z,99399.28
2023-02-01T23:34:16.146Z,99395.72
2023-02-01T23:36:44.630Z,99395.56
2023-02-01T23:39:13.093Z,99397.94
2023-02-01T23:41:41.534Z,99387.34
2023-02-01T23:44:10.355Z,99379.50
2023-02-01T23:46:40.449Z,99398.28
2023-02-01T23:49:11.734Z,99392.91
2023-02-01T23:51:40.325Z,99391.38
2023-02-01T23:54:09.810Z,99390.16
2023-02-01T23:56:40.010Z,99383.53
2023-02-01T23:59:11.433Z,99391.25
